Curtin, West Virginia
Current Conditions -  °F | °C
As of 8:35 AM on Monday 24 Nov 2014 (Local Time) from KW22 Reporting Station
Clear Clear  
Wind Chill: 63°   Ceiling: Unl
Heat Index: 63°   Visibility: 10mi
Dew Point: 48°   Wind: 18mph
Humidity: 59%   Direction: 190°S
Pressure: 29.55"   Gusts: 29mph
Location:  38.4739°N, 80.3326°W
Report Text: KW22 241335Z AUTO 19016G25KT 10SM CLR 17/09 A2955 RMK AO2
Loading
Personal Weather Stations






























Interactive Weather Map New forecast layout! Learn more

10-Day Weather Forecast

Advertisements
Track Severe Weather on mobile